createdAt,value
2022-09-18T00:00:29.551Z,99265.15
2022-09-18T00:03:19.505Z,99262.90
2022-09-18T00:05:48.606Z,99262.98
2022-09-18T00:08:17.494Z,99258.32
2022-09-18T00:10:46.933Z,99254.98
2022-09-18T00:13:16.363Z,99254.69
2022-09-18T00:15:55.143Z,99255.16
2022-09-18T00:18:24.033Z,99252.42
2022-09-18T00:20:52.998Z,99250.93
2022-09-18T00:23:22.010Z,99252.44
2022-09-18T00:25:50.855Z,99254.33
2022-09-18T00:28:22.100Z,99249.42
2022-09-18T00:30:50.897Z,99247.25
2022-09-18T00:33:20.678Z,99250.08
2022-09-18T00:35:49.631Z,99254.39
2022-09-18T00:38:18.438Z,99254.04
2022-09-18T00:40:47.526Z,99255.45
2022-09-18T00:43:26.833Z,99258.64
2022-09-18T00:46:08.558Z,99255.49
2022-09-18T00:49:16.749Z,99256.02
2022-09-18T00:51:50.044Z,99258.86
2022-09-18T00:54:38.487Z,99256.20
2022-09-18T00:57:20.364Z,99255.44
2022-09-18T00:59:52.064Z,99254.54
2022-09-18T01:02:22.342Z,99252.87
2022-09-18T01:04:51.756Z,99252.73
2022-09-18T01:08:02.529Z,99248.92
2022-09-18T01:11:12.982Z,99248.41
2022-09-18T01:14:23.742Z,99250.39
2022-09-18T01:17:46.391Z,99250.87
2022-09-18T01:20:35.914Z,99243.50
2022-09-18T01:23:25.786Z,99244.38
2022-09-18T01:26:19.221Z,99247.54
2022-09-18T01:29:23.797Z,99254.80
2022-09-18T01:32:21.052Z,99259.33
2022-09-18T01:35:10.132Z,99252.67
2022-09-18T01:38:19.208Z,99255.86
2022-09-18T01:41:03.068Z,99256.69
2022-09-18T01:43:35.403Z,99258.00
2022-09-18T01:46:12.859Z,99257.65
2022-09-18T01:48:56.945Z,99253.70
2022-09-18T01:51:36.428Z,99251.71
2022-09-18T01:54:17.973Z,99253.48
2022-09-18T01:56:55.316Z,99251.21
2022-09-18T01:59:33.365Z,99250.33
2022-09-18T02:02:25.418Z,99250.30
2022-09-18T02:05:00.805Z,99246.85
2022-09-18T02:07:40.196Z,99245.33
2022-09-18T02:10:11.709Z,99244.96
2022-09-18T02:12:46.675Z,99243.90
2022-09-18T02:15:16.652Z,99245.74
2022-09-18T02:18:02.761Z,99249.16
2022-09-18T02:20:42.700Z,99250.08
2022-09-18T02:23:12.972Z,99252.63
2022-09-18T02:25:53.007Z,99247.98
2022-09-18T02:28:25.748Z,99245.48
2022-09-18T02:30:55.607Z,99243.80
2022-09-18T02:33:30.193Z,99242.86
2022-09-18T02:36:33.243Z,99241.31
2022-09-18T02:39:56.625Z,99237.88
2022-09-18T02:42:55.865Z,99236.52
2022-09-18T02:45:43.953Z,99239.56
2022-09-18T02:48:50.425Z,99241.02
2022-09-18T02:51:41.617Z,99238.49
2022-09-18T02:54:50.022Z,99234.27
2022-09-18T02:57:33.849Z,99231.81
2022-09-18T03:00:07.288Z,99234.26
2022-09-18T03:02:38.884Z,99233.24
2022-09-18T03:05:09.607Z,99234.09
2022-09-18T03:07:46.721Z,99233.65
2022-09-18T03:10:15.665Z,99233.68
2022-09-18T03:12:44.556Z,99232.74
2022-09-18T03:15:13.628Z,99234.23
2022-09-18T03:17:42.602Z,99232.46
2022-09-18T03:20:11.656Z,99232.48
2022-09-18T03:22:40.536Z,99228.04
2022-09-18T03:25:14.587Z,99227.27
2022-09-18T03:27:43.903Z,99222.61
2022-09-18T03:30:17.551Z,99222.30
2022-09-18T03:32:46.496Z,99221.40
2022-09-18T03:35:15.545Z,99220.44
2022-09-18T03:37:44.443Z,99217.48
2022-09-18T03:40:17.524Z,99219.17
2022-09-18T03:42:46.779Z,99217.25
2022-09-18T03:45:16.138Z,99215.17
2022-09-18T03:47:46.922Z,99217.20
2022-09-18T03:50:16.527Z,99214.77
2022-09-18T03:52:50.427Z,99217.06
2022-09-18T03:55:41.533Z,99216.29
2022-09-18T03:58:45.500Z,99216.58
2022-09-18T04:01:26.584Z,99214.90
2022-09-18T04:04:28.792Z,99216.19
2022-09-18T04:07:35.919Z,99218.51
2022-09-18T04:10:23.286Z,99215.04
2022-09-18T04:12:52.466Z,99214.47
2022-09-18T04:15:28.911Z,99217.09
2022-09-18T04:17:58.355Z,99219.17
2022-09-18T04:20:27.188Z,99225.30
2022-09-18T04:22:56.185Z,99221.89
2022-09-18T04:25:25.121Z,99221.16
2022-09-18T04:27:54.010Z,99219.42
2022-09-18T04:30:26.250Z,99218.81
2022-09-18T04:32:55.307Z,99218.92
2022-09-18T04:35:24.300Z,99224.81
2022-09-18T04:37:53.210Z,99224.72
2022-09-18T04:40:22.323Z,99222.13
2022-09-18T04:42:51.704Z,99225.20
2022-09-18T04:45:20.445Z,99224.50
2022-09-18T04:47:49.781Z,99226.49
2022-09-18T04:50:20.576Z,99226.91
2022-09-18T04:53:13.298Z,99229.20
2022-09-18T04:55:46.844Z,99232.58
2022-09-18T04:58:18.865Z,99234.03
2022-09-18T05:00:52.125Z,99234.92
2022-09-18T05:03:22.775Z,99237.52
2022-09-18T05:05:55.158Z,99235.45
2022-09-18T05:08:24.389Z,99233.92
2022-09-18T05:10:53.301Z,99229.55
2022-09-18T05:13:22.320Z,99229.44
2022-09-18T05:16:01.055Z,99228.55
2022-09-18T05:18:31.983Z,99224.39
2022-09-18T05:21:05.833Z,99225.63
2022-09-18T05:23:35.359Z,99226.84
2022-09-18T05:26:04.758Z,99226.80
2022-09-18T05:28:33.930Z,99227.86
2022-09-18T05:31:04.043Z,99232.66
2022-09-18T05:33:43.218Z,99232.67
2022-09-18T05:36:18.781Z,99230.70
2022-09-18T05:38:54.516Z,99231.10
2022-09-18T05:41:26.686Z,99226.52
2022-09-18T05:43:58.552Z,99232.19
2022-09-18T05:46:32.604Z,99231.77
2022-09-18T05:49:09.968Z,99232.39
2022-09-18T05:51:50.748Z,99232.60
2022-09-18T05:54:44.900Z,99231.61
2022-09-18T05:57:21.394Z,99231.63
2022-09-18T05:59:51.967Z,99231.96
2022-09-18T06:02:22.153Z,99229.38
2022-09-18T06:05:19.348Z,99225.07
2022-09-18T06:08:12.580Z,99222.50
2022-09-18T06:10:56.351Z,99222.41
2022-09-18T06:13:50.002Z,99224.78
2022-09-18T06:16:24.860Z,99224.10
2022-09-18T06:19:05.126Z,99226.14
2022-09-18T06:21:38.317Z,99229.10
2022-09-18T06:24:09.943Z,99231.39
2022-09-18T06:27:14.168Z,99232.36
2022-09-18T06:29:55.929Z,99234.27
2022-09-18T06:32:35.248Z,99233.45
2022-09-18T06:35:08.886Z,99237.95
2022-09-18T06:37:45.571Z,99240.23
2022-09-18T06:40:37.286Z,99240.61
2022-09-18T06:43:26.367Z,99243.08
2022-09-18T06:46:22.378Z,99244.95
2022-09-18T06:48:57.759Z,99244.10
2022-09-18T06:51:36.914Z,99241.77
2022-09-18T06:54:15.102Z,99247.21
2022-09-18T06:56:53.496Z,99247.19
2022-09-18T06:59:24.356Z,99248.80
2022-09-18T07:02:03.374Z,99250.13
2022-09-18T07:04:54.469Z,99247.61
2022-09-18T07:07:23.922Z,99249.23
2022-09-18T07:09:53.463Z,99245.33
2022-09-18T07:12:32.050Z,99242.95
2022-09-18T07:15:05.825Z,99238.83
2022-09-18T07:17:41.748Z,99235.96
2022-09-18T07:20:22.899Z,99232.44
2022-09-18T07:23:32.665Z,99236.21
2022-09-18T07:26:25.155Z,99237.42
2022-09-18T07:29:11.533Z,99234.33
2022-09-18T07:31:55.051Z,99235.45
2022-09-18T07:34:44.516Z,99240.88
2022-09-18T07:37:55.152Z,99238.91
2022-09-18T07:41:06.121Z,99241.02
2022-09-18T07:43:53.867Z,99243.60
2022-09-18T07:46:27.586Z,99242.86
2022-09-18T07:49:14.914Z,99256.04
2022-09-18T07:52:17.274Z,99256.94
2022-09-18T07:55:49.919Z,99259.09
2022-09-18T07:58:31.292Z,99264.82
2022-09-18T08:01:32.193Z,99264.25
2022-09-18T08:07:48.481Z,99270.02
2022-09-18T08:11:25.317Z,99273.03
2022-09-18T08:14:16.831Z,99274.59
2022-09-18T08:17:19.887Z,99276.05
2022-09-18T08:20:45.204Z,99275.76
2022-09-18T08:23:44.451Z,99276.20
2022-09-18T08:26:30.103Z,99278.57
2022-09-18T08:29:18.129Z,99281.37
2022-09-18T08:32:00.893Z,99282.42
2022-09-18T08:34:54.511Z,99275.45
2022-09-18T08:38:10.992Z,99281.41
2022-09-18T08:41:55.980Z,99282.95
2022-09-18T08:44:53.898Z,99281.73
2022-09-18T08:47:51.648Z,99280.98
2022-09-18T08:50:46.576Z,99281.56
2022-09-18T08:53:58.592Z,99277.25
2022-09-18T08:57:15.358Z,99280.10
2022-09-18T09:00:41.460Z,99279.79
2022-09-18T09:04:13.107Z,99279.54
2022-09-18T09:07:15.635Z,99279.63
2022-09-18T09:10:10.469Z,99282.56
2022-09-18T09:14:11.919Z,99281.75
2022-09-18T09:17:41.421Z,99279.98
2022-09-18T09:20:35.046Z,99283.96
2022-09-18T09:23:35.554Z,99288.30
2022-09-18T09:26:22.055Z,99287.34
2022-09-18T09:29:25.277Z,99288.70
2022-09-18T09:32:40.531Z,99288.27
2022-09-18T09:35:53.884Z,99289.63
2022-09-18T09:39:05.250Z,99285.27
2022-09-18T09:42:05.889Z,99280.02
2022-09-18T09:45:02.198Z,99285.79
2022-09-18T09:47:59.401Z,99289.40
2022-09-18T10:08:18.121Z,99307.05
2022-09-18T10:11:11.513Z,99308.64
2022-09-18T10:17:09.394Z,99312.08
2022-09-18T10:19:45.638Z,99311.74
2022-09-18T10:22:23.529Z,99312.63
2022-09-18T10:25:03.063Z,99314.31
2022-09-18T10:27:33.829Z,99315.98
2022-09-18T10:30:13.703Z,99320.00
2022-09-18T10:32:51.168Z,99321.10
2022-09-18T10:35:31.397Z,99320.98
2022-09-18T10:38:01.287Z,99324.80
2022-09-18T10:40:41.662Z,99326.73
2022-09-18T10:43:23.187Z,99323.34
2022-09-18T10:45:57.621Z,99321.11
2022-09-18T10:48:31.685Z,99325.27
2022-09-18T10:51:04.398Z,99328.61
2022-09-18T10:54:23.341Z,99328.30
2022-09-18T10:57:28.121Z,99326.52
2022-09-18T10:59:58.758Z,99331.16
2022-09-18T11:02:39.173Z,99332.70
2022-09-18T11:05:34.736Z,99333.75
2022-09-18T11:08:16.108Z,99332.15
2022-09-18T11:10:50.976Z,99333.83
2022-09-18T11:13:26.264Z,99330.31
2022-09-18T11:16:03.187Z,99330.27
2022-09-18T11:18:40.929Z,99333.51
2022-09-18T11:21:12.664Z,99328.92
2022-09-18T11:23:42.423Z,99321.73
2022-09-18T11:26:27.867Z,99326.45
2022-09-18T11:29:24.519Z,99329.00
2022-09-18T11:32:05.835Z,99323.06
2022-09-18T11:34:44.515Z,99324.02
2022-09-18T11:37:28.809Z,99324.79
2022-09-18T11:40:45.223Z,99322.59
2022-09-18T11:43:23.808Z,99326.09
2022-09-18T11:46:28.846Z,99320.14
2022-09-18T11:49:24.112Z,99323.50
2022-09-18T11:52:04.616Z,99318.39
2022-09-18T11:54:58.830Z,99320.84
2022-09-18T11:58:07.879Z,99329.52
2022-09-18T12:00:48.539Z,99342.09
2022-09-18T12:03:28.350Z,99348.24
2022-09-18T12:06:12.147Z,99345.73
2022-09-18T12:09:07.241Z,99351.94
2022-09-18T12:11:54.338Z,99357.97
2022-09-18T12:14:52.364Z,99360.45
2022-09-18T12:17:56.632Z,99365.09
2022-09-18T12:20:32.819Z,99368.50
2022-09-18T12:23:03.952Z,99369.49
2022-09-18T12:25:58.966Z,99367.11
2022-09-18T12:29:00.626Z,99367.76
2022-09-18T12:32:14.428Z,99368.49
2022-09-18T12:35:17.201Z,99367.93
2022-09-18T12:38:23.102Z,99364.30
2022-09-18T12:41:31.780Z,99366.52
2022-09-18T12:44:45.205Z,99366.63
2022-09-18T12:47:27.194Z,99367.23
2022-09-18T12:50:21.120Z,99367.73
2022-09-18T12:53:11.661Z,99367.06
2022-09-18T12:56:08.474Z,99369.19
2022-09-18T12:59:20.266Z,99373.26
2022-09-18T13:02:14.283Z,99372.36
2022-09-18T13:05:22.667Z,99368.69
2022-09-18T13:08:28.102Z,99370.96
2022-09-18T13:11:05.459Z,99371.34
2022-09-18T13:13:51.975Z,99371.80
2022-09-18T13:16:47.291Z,99371.20
2022-09-18T13:19:38.523Z,99365.58
2022-09-18T13:22:16.432Z,99369.39
2022-09-18T13:24:55.781Z,99365.72
2022-09-18T13:27:26.188Z,99366.73
2022-09-18T13:30:01.295Z,99365.23
2022-09-18T13:32:39.669Z,99364.76
2022-09-18T13:35:18.833Z,99371.12
2022-09-18T13:38:22.823Z,99374.13
2022-09-18T13:41:07.011Z,99374.29
2022-09-18T13:43:59.991Z,99371.06
2022-09-18T13:46:45.082Z,99375.13
2022-09-18T13:49:32.371Z,99371.21
2022-09-18T13:52:43.066Z,99374.83
2022-09-18T13:55:49.778Z,99375.40
2022-09-18T13:58:34.419Z,99373.14
2022-09-18T14:01:10.252Z,99373.53
2022-09-18T14:03:49.660Z,99375.23
2022-09-18T14:06:40.962Z,99373.66
2022-09-18T14:09:45.677Z,99372.05
2022-09-18T14:12:19.475Z,99375.40
2022-09-18T14:15:08.464Z,99380.84
2022-09-18T14:17:41.768Z,99379.65
2022-09-18T14:20:21.919Z,99385.08
2022-09-18T14:22:51.963Z,99383.48
2022-09-18T14:25:46.726Z,99383.28
2022-09-18T14:28:23.773Z,99376.50
2022-09-18T14:31:32.339Z,99374.60
2022-09-18T14:34:28.807Z,99373.63
2022-09-18T14:37:05.415Z,99369.18
2022-09-18T14:39:39.984Z,99370.84
2022-09-18T14:42:43.460Z,99367.92
2022-09-18T14:45:34.492Z,99366.41
2022-09-18T14:48:28.164Z,99365.73
2022-09-18T14:51:18.566Z,99366.67
2022-09-18T14:53:54.692Z,99366.95
2022-09-18T14:56:37.379Z,99364.52
2022-09-18T14:59:27.672Z,99366.13
2022-09-18T15:02:26.882Z,99366.66
2022-09-18T15:04:58.327Z,99366.80
2022-09-18T15:07:27.756Z,99364.77
2022-09-18T15:10:01.527Z,99364.46
2022-09-18T15:12:35.760Z,99361.80
2022-09-18T15:15:39.767Z,99363.10
2022-09-18T15:18:24.421Z,99362.86
2022-09-18T15:20:56.758Z,99361.34
2022-09-18T15:23:36.672Z,99359.14
2022-09-18T15:26:14.672Z,99357.29
2022-09-18T15:28:50.609Z,99359.48
2022-09-18T15:31:37.557Z,99355.98
2022-09-18T15:34:21.232Z,99356.30
2022-09-18T15:37:05.354Z,99358.77
2022-09-18T15:39:41.648Z,99359.00
2022-09-18T15:42:24.174Z,99358.02
2022-09-18T15:45:23.057Z,99361.04
2022-09-18T15:47:53.478Z,99359.05
2022-09-18T15:50:41.638Z,99360.75
2022-09-18T15:53:18.201Z,99363.17
2022-09-18T15:55:59.356Z,99357.42
2022-09-18T15:58:55.825Z,99355.02
2022-09-18T16:01:35.586Z,99357.33
2022-09-18T16:04:17.185Z,99363.38
2022-09-18T16:07:15.878Z,99365.70
2022-09-18T16:09:49.770Z,99362.70
2022-09-18T16:12:29.412Z,99361.64
2022-09-18T16:15:23.224Z,99363.42
2022-09-18T16:18:20.610Z,99370.30
2022-09-18T16:20:53.954Z,99376.65
2022-09-18T16:23:35.859Z,99378.41
2022-09-18T16:26:21.612Z,99375.52
2022-09-18T16:29:06.739Z,99375.10
2022-09-18T16:31:37.752Z,99376.92
2022-09-18T16:34:31.102Z,99383.70
2022-09-18T16:37:12.389Z,99380.10
2022-09-18T16:39:41.891Z,99379.98
2022-09-18T16:42:19.246Z,99379.13
2022-09-18T16:44:48.441Z,99379.54
2022-09-18T16:47:18.885Z,99381.17
2022-09-18T16:49:49.616Z,99379.14
2022-09-18T16:52:18.829Z,99379.17
2022-09-18T16:54:48.577Z,99376.76
2022-09-18T16:57:23.771Z,99375.74
2022-09-18T16:59:52.847Z,99374.98
2022-09-18T17:02:25.851Z,99380.42
2022-09-18T17:04:55.200Z,99383.45
2022-09-18T17:07:24.263Z,99386.95
2022-09-18T17:10:11.040Z,99385.91
2022-09-18T17:12:42.831Z,99387.32
2022-09-18T17:15:12.004Z,99390.13
2022-09-18T17:17:41.650Z,99388.13
2022-09-18T17:20:18.178Z,99387.56
2022-09-18T17:22:49.104Z,99392.75
2022-09-18T17:25:19.731Z,99395.16
2022-09-18T17:27:51.066Z,99399.20
2022-09-18T17:30:21.740Z,99406.02
2022-09-18T17:32:55.571Z,99407.95
2022-09-18T17:35:26.618Z,99408.34
2022-09-18T17:37:56.023Z,99413.01
2022-09-18T17:40:25.485Z,99414.15
2022-09-18T17:42:54.867Z,99411.00
2022-09-18T17:45:26.286Z,99409.02
2022-09-18T17:47:57.780Z,99411.08
2022-09-18T17:50:26.770Z,99409.05
2022-09-18T17:52:56.024Z,99414.10
2022-09-18T17:55:29.316Z,99417.99
2022-09-18T17:57:58.307Z,99417.70
2022-09-18T18:00:28.453Z,99417.20
2022-09-18T18:02:57.485Z,99416.30
2022-09-18T18:05:29.185Z,99413.30
2022-09-18T18:07:58.053Z,99413.75
2022-09-18T18:10:30.219Z,99417.48
2022-09-18T18:12:59.292Z,99419.03
2022-09-18T18:15:29.354Z,99424.12
2022-09-18T18:17:58.979Z,99423.20
2022-09-18T18:20:28.276Z,99426.11
2022-09-18T18:22:57.298Z,99426.29
2022-09-18T18:25:27.475Z,99428.83
2022-09-18T18:27:56.852Z,99428.05
2022-09-18T18:30:26.922Z,99425.16
2022-09-18T18:32:58.040Z,99428.27
2022-09-18T18:35:27.221Z,99425.26
2022-09-18T18:37:56.612Z,99422.80
2022-09-18T18:40:26.861Z,99424.38
2022-09-18T18:42:56.173Z,99423.02
2022-09-18T18:45:25.172Z,99419.85
2022-09-18T18:47:55.871Z,99419.95
2022-09-18T18:50:25.256Z,99418.73
2022-09-18T18:52:54.227Z,99420.09
2022-09-18T18:55:23.800Z,99418.67
2022-09-18T18:57:53.369Z,99418.31
2022-09-18T19:00:27.459Z,99421.23
2022-09-18T19:02:56.536Z,99420.52
2022-09-18T19:05:30.417Z,99417.93
2022-09-18T19:07:59.360Z,99414.98
2022-09-18T19:10:29.804Z,99413.74
2022-09-18T19:13:00.780Z,99414.11
2022-09-18T19:15:30.160Z,99412.64
2022-09-18T19:18:00.619Z,99416.29
2022-09-18T19:20:30.496Z,99414.21
2022-09-18T19:23:00.010Z,99414.88
2022-09-18T19:25:30.316Z,99414.80
2022-09-18T19:27:59.562Z,99418.09
2022-09-18T19:30:35.807Z,99416.28
2022-09-18T19:33:06.397Z,99412.19
2022-09-18T19:35:36.441Z,99420.82
2022-09-18T19:38:06.233Z,99419.48
2022-09-18T19:40:38.665Z,99417.23
2022-09-18T19:43:16.084Z,99416.09
2022-09-18T19:45:48.581Z,99417.81
2022-09-18T19:48:25.418Z,99416.79
2022-09-18T19:50:54.810Z,99418.67
2022-09-18T19:53:23.895Z,99414.37
2022-09-18T19:55:52.808Z,99415.38
2022-09-18T19:58:21.880Z,99417.13
2022-09-18T20:00:51.105Z,99419.84
2022-09-18T20:03:20.137Z,99421.52
2022-09-18T20:05:49.211Z,99418.90
2022-09-18T20:08:18.375Z,99421.10
2022-09-18T20:10:47.541Z,99424.73
2022-09-18T20:13:17.091Z,99424.77
2022-09-18T20:15:46.027Z,99424.09
2022-09-18T20:18:15.482Z,99422.96
2022-09-18T20:20:50.011Z,99422.70
2022-09-18T20:23:19.084Z,99422.38
2022-09-18T20:25:49.784Z,99421.02
2022-09-18T20:28:18.937Z,99423.11
2022-09-18T20:30:47.977Z,99420.67
2022-09-18T20:33:16.902Z,99418.73
2022-09-18T20:35:59.392Z,99422.25
2022-09-18T20:38:44.757Z,99426.52
2022-09-18T20:41:17.098Z,99422.17
2022-09-18T20:43:47.964Z,99421.15
2022-09-18T20:46:24.889Z,99420.72
2022-09-18T20:48:57.710Z,99422.86
2022-09-18T20:51:32.473Z,99424.39
2022-09-18T20:54:04.920Z,99426.85
2022-09-18T20:56:41.513Z,99427.80
2022-09-18T20:59:16.892Z,99428.95
2022-09-18T21:01:49.739Z,99425.98
2022-09-18T21:04:28.441Z,99422.55
2022-09-18T21:06:59.264Z,99418.85
2022-09-18T21:09:31.253Z,99420.59
2022-09-18T21:12:00.988Z,99419.64
2022-09-18T21:14:30.449Z,99419.23
2022-09-18T21:17:00.205Z,99420.15
2022-09-18T21:19:29.439Z,99418.20
2022-09-18T21:21:58.553Z,99420.52
2022-09-18T21:24:28.518Z,99424.83
2022-09-18T21:26:58.215Z,99422.94
2022-09-18T21:29:44.496Z,99428.90
2022-09-18T21:32:13.781Z,99429.66
2022-09-18T21:34:45.524Z,99426.73
2022-09-18T21:37:15.110Z,99427.08
2022-09-18T21:39:44.509Z,99427.95
2022-09-18T21:42:16.165Z,99430.09
2022-09-18T21:44:45.907Z,99429.41
2022-09-18T21:47:23.608Z,99432.71
2022-09-18T21:49:53.296Z,99436.11
2022-09-18T21:52:22.683Z,99433.98
2022-09-18T21:54:52.664Z,99430.02
2022-09-18T21:57:23.312Z,99432.23
2022-09-18T21:59:56.302Z,99432.71
2022-09-18T22:02:25.693Z,99429.73
2022-09-18T22:04:57.874Z,99426.92
2022-09-18T22:07:29.594Z,99429.00
2022-09-18T22:09:59.787Z,99423.78
2022-09-18T22:12:31.899Z,99424.84
2022-09-18T22:15:01.236Z,99423.14
2022-09-18T22:17:31.221Z,99422.63
2022-09-18T22:20:00.644Z,99422.87
2022-09-18T22:22:30.307Z,99423.42
2022-09-18T22:24:59.766Z,99423.73
2022-09-18T22:27:29.322Z,99423.30
2022-09-18T22:29:58.790Z,99425.17
2022-09-18T22:32:28.837Z,99425.34
2022-09-18T22:34:58.163Z,99421.73
2022-09-18T22:37:29.379Z,99424.09
2022-09-18T22:39:59.053Z,99425.66
2022-09-18T22:42:29.647Z,99427.52
2022-09-18T22:45:00.510Z,99427.09
2022-09-18T22:47:30.348Z,99425.08
2022-09-18T22:49:59.678Z,99418.20
2022-09-18T22:52:28.879Z,99423.84
2022-09-18T22:54:58.272Z,99428.75
2022-09-18T22:57:27.654Z,99423.95
2022-09-18T22:59:59.940Z,99426.05
2022-09-18T23:02:29.737Z,99425.58
2022-09-18T23:05:00.920Z,99429.15
2022-09-18T23:07:30.446Z,99427.84
2022-09-18T23:10:00.039Z,99427.75
2022-09-18T23:12:29.598Z,99424.17
2022-09-18T23:15:00.756Z,99425.84
2022-09-18T23:17:33.239Z,99423.67
2022-09-18T23:20:05.472Z,99426.27
2022-09-18T23:22:34.766Z,99426.19
2022-09-18T23:25:04.629Z,99423.60
2022-09-18T23:27:34.256Z,99425.92
2022-09-18T23:30:05.296Z,99427.86
2022-09-18T23:32:34.644Z,99429.83
2022-09-18T23:35:04.377Z,99426.11
2022-09-18T23:37:33.750Z,99427.05
2022-09-18T23:40:02.989Z,99425.51
2022-09-18T23:42:32.416Z,99426.91
2022-09-18T23:45:04.922Z,99426.90
2022-09-18T23:47:43.692Z,99428.00
2022-09-18T23:50:13.038Z,99427.64
2022-09-18T23:52:43.895Z,99427.09
2022-09-18T23:55:13.170Z,99418.63
2022-09-18T23:57:43.060Z,99416.02
